Narowal Weather



Narowal's Current Weather

Temprature 36o dust

dust

Rain: 0 %

Min Temprature36o
Max Temprature36o
Humidity26
Wind Speed2.06 m/h
Sun Rise05:08:18
Sun Set18:45:37
Current Time: 08-May-2021 16:03:37
Lat/Lon: 32.1, 74.8833




Narowal's Geo Location



Narowal's Weather Forecast

Time Overall Temp Min Temp Max Temp Humidity Wind Speed Rain
08-May-2021 (Sat)
17:00:00 few clouds 36.000 35.980 36.000 26 2.61 m/h 0 %
20:00:00 light rain 34.490 31.470 34.490 27 2.42 m/h 28 %
23:00:00 few clouds 30.730 28.100 30.730 31 1.92 m/h 0 %
09-May-2021 (Sun)
02:00:00 light rain 26.510 26.510 26.510 38 1.99 m/h 16 %
05:00:00 clear sky 25.120 25.120 25.120 39 2.8 m/h 0 %
08:00:00 clear sky 32.160 32.160 32.160 23 3.61 m/h 0 %
11:00:00 clear sky 38.730 38.730 38.730 16 0.94 m/h 0 %
14:00:00 scattered clouds 38.190 38.190 38.190 15 3.35 m/h 0 %
17:00:00 light rain 29.760 29.760 29.760 35 10.3 m/h 19 %
20:00:00 light rain 26.870 26.870 26.870 46 2.64 m/h 274 %
23:00:00 overcast clouds 25.740 25.740 25.740 49 3.66 m/h 0 %
10-May-2021 (Mon)
02:00:00 broken clouds 24.880 24.880 24.880 51 1.26 m/h 0 %
05:00:00 light rain 23.720 23.720 23.720 55 2.14 m/h 25 %
08:00:00 light rain 28.900 28.900 28.900 37 2.64 m/h 85 %
11:00:00 overcast clouds 35.850 35.850 35.850 21 1.14 m/h 0 %
14:00:00 overcast clouds 38.200 38.200 38.200 17 1.92 m/h 0 %
17:00:00 overcast clouds 38.390 38.390 38.390 15 2.25 m/h 0 %
20:00:00 clear sky 33.370 33.370 33.370 21 1.8 m/h 0 %
23:00:00 clear sky 29.750 29.750 29.750 27 2.73 m/h 0 %
11-May-2021 (Tue)
02:00:00 clear sky 26.780 26.780 26.780 35 1.97 m/h 0 %
05:00:00 light rain 25.790 25.790 25.790 37 2.58 m/h 31 %
08:00:00 overcast clouds 31.780 31.780 31.780 26 4.72 m/h 0 %
11:00:00 scattered clouds 38.120 38.120 38.120 17 2.83 m/h 0 %
14:00:00 few clouds 40.840 40.840 40.840 13 2.78 m/h 0 %
17:00:00 clear sky 40.890 40.890 40.890 12 1.43 m/h 0 %
20:00:00 clear sky 30.370 30.370 30.370 28 6.63 m/h 0 %
23:00:00 light rain 29.140 29.140 29.140 35 1.29 m/h 73 %
12-May-2021 (Wed)
02:00:00 light rain 27.070 27.070 27.070 41 2.54 m/h 34 %
05:00:00 light rain 26.390 26.390 26.390 41 4.81 m/h 14 %
08:00:00 overcast clouds 29.190 29.190 29.190 35 4.9 m/h 0 %
11:00:00 overcast clouds 30.310 30.310 30.310 33 4.37 m/h 0 %
14:00:00 light rain 27.190 27.190 27.190 45 9.75 m/h 71 %
17:00:00 light rain 27.450 27.450 27.450 41 6.68 m/h 50 %
20:00:00 overcast clouds 25.950 25.950 25.950 49 3.15 m/h 0 %
23:00:00 overcast clouds 24.360 24.360 24.360 54 2.79 m/h 0 %
13-May-2021 (Thu)
02:00:00 overcast clouds 23.020 23.020 23.020 58 1.66 m/h 0 %
05:00:00 light rain 22.160 22.160 22.160 61 2.15 m/h 12 %
08:00:00 light rain 25.950 25.950 25.950 47 1.99 m/h 103 %
11:00:00 light rain 31.630 31.630 31.630 33 3.7 m/h 17 %
14:00:00 clear sky 34.980 34.980 34.980 25 2.2 m/h 0 %

Famous Cities (60)